Weather reports worldwide

Advertisment
St-Raphael, France (7680): temperature & dewpoint: 02.07.2020 16:00:00 - 08.07.2020 16:00:00 (CEST)St-Raphael, France (7680): wind speed & gusts: 02.07.2020 16:00:00 - 08.07.2020 16:00:00 (CEST)St-Raphael, France (7680): wind direction: 02.07.2020 16:00:00 - 08.07.2020 16:00:00 (CEST)St-Raphael, France (7680): precipitation: 02.07.2020 16:00:00 - 08.07.2020 16:00:00 (CEST)
Date & Time tt [°C] td [°C] ff [km/h] ff [kn] fx [km/h] fx [kn] dd rr [mm]
08.07.2020 16:00:00 - - - - - - - -
08.07.2020 15:00:00 28,6 20,1 19 10 36 19 SSE 0,0
08.07.2020 14:00:00 28,0 19,0 17 9 31 17 SSE 0,0
08.07.2020 13:00:00 27,8 18,8 15 8 29 16 SSE 0,0
08.07.2020 12:00:00 27,6 18,6 11 6 25 14 SSE 0,0
08.07.2020 11:00:00 28,4 15,7 8 4 16 9 SE 0,0
08.07.2020 10:00:00 25,7 14,5 3 2 12 7 WNW 0,0
08.07.2020 09:00:00 21,9 14,3 7 4 15 8 WNW 0,0
08.07.2020 08:00:00 20,2 14,1 8 4 16 9 NW 0,0
08.07.2020 07:00:00 19,5 13,7 7 4 19 10 NW 0,0
08.07.2020 06:00:00 18,7 14,0 5 3 18 10 NW 0,0
08.07.2020 05:00:00 19,6 14,4 8 4 18 10 NW 0,0
08.07.2020 04:00:00 20,2 14,6 9 5 19 10 NW 0,0
08.07.2020 03:00:00 19,4 15,1 4 2 11 6 WNW 0,0
08.07.2020 02:00:00 20,6 15,6 4 2 13 7 NW 0,0
08.07.2020 01:00:00 21,2 15,7 3 2 8 4 NW 0,0
08.07.2020 00:00:00 22,0 15,4 3 1 13 7 WNW 0,0
07.07.2020 23:00:00 23,6 15,4 7 4 13 7 W 0,0
07.07.2020 22:00:00 23,8 15,6 2 1 6 4 WSW 0,0
07.07.2020 21:00:00 26,9 16,2 5 3 10 5 SSW 0,0
07.07.2020 20:00:00 28,0 16,3 6 3 16 9 S 0,0
07.07.2020 19:00:00 28,3 17,8 7 4 27 15 SSE 0,0
07.07.2020 18:00:00 29,4 17,2 10 5 24 13 S 0,0
07.07.2020 17:00:00 29,8 16,6 13 7 31 17 S 0,0
07.07.2020 16:00:00 30,3 15,6 18 10 33 18 S 0,0
07.07.2020 15:00:00 30,7 17,0 16 8 36 20 S 0,0
07.07.2020 14:00:00 30,2 16,6 16 8 37 20 SSE 0,0
07.07.2020 13:00:00 29,8 18,3 12 6 29 16 SSE 0,0
07.07.2020 12:00:00 29,4 16,6 11 6 26 14 SSE 0,0
07.07.2020 11:00:00 29,2 10,3 13 7 27 14 WNW 0,0
07.07.2020 10:00:00 26,7 8,6 13 7 31 17 NW 0,0
07.07.2020 09:00:00 24,3 7,0 14 8 35 19 NW 0,0
07.07.2020 08:00:00 22,5 6,7 11 6 27 15 NNW 0,0
07.07.2020 07:00:00 20,9 6,4 11 6 30 16 NNW 0,0
07.07.2020 06:00:00 20,6 6,5 10 5 24 13 NNW 0,0
07.07.2020 05:00:00 21,1 6,2 8 4 21 11 NNW 0,0
07.07.2020 04:00:00 22,0 6,2 10 5 23 12 NNW 0,0
07.07.2020 03:00:00 22,9 5,8 10 5 28 15 NW 0,0
07.07.2020 02:00:00 23,6 6,4 13 7 27 14 WNW 0,0
07.07.2020 01:00:00 24,3 7,0 11 6 33 18 NW 0,0
07.07.2020 00:00:00 24,6 11,2 6 3 24 13 NW 0,0
06.07.2020 23:00:00 25,1 10,2 4 2 16 8 NW 0,0
06.07.2020 22:00:00 24,4 20,1 4 2 18 10 E 0,0
06.07.2020 21:00:00 25,3 21,2 10 5 20 11 ESE 0,0
06.07.2020 20:00:00 26,3 21,1 8 4 20 11 ESE 0,0
06.07.2020 19:00:00 27,0 21,5 8 4 21 12 ESE 0,0
06.07.2020 18:00:00 26,9 21,6 12 6 25 13 ESE 0,0
06.07.2020 17:00:00 26,9 21,6 15 8 26 14 ESE 0,0
06.07.2020 16:00:00 27,6 21,4 11 6 30 16 SE 0,0
06.07.2020 15:00:00 28,3 21,1 13 7 29 16 SSE 0,0
06.07.2020 14:00:00 28,4 20,9 13 7 26 14 SE 0,0
06.07.2020 13:00:00 27,8 21,3 13 7 27 15 SE 0,0
06.07.2020 12:00:00 27,9 20,7 11 6 22 12 SE 0,0
06.07.2020 11:00:00 27,2 20,8 9 5 19 10 SE 0,0
06.07.2020 10:00:00 28,2 15,1 3 2 10 5 SSE 0,0
06.07.2020 09:00:00 25,5 15,8 5 3 16 9 NNW 0,0
06.07.2020 08:00:00 22,4 15,0 5 3 15 8 NW 0,0
06.07.2020 07:00:00 19,5 14,3 6 4 14 8 WNW 0,0
06.07.2020 06:00:00 18,9 13,7 5 3 12 7 NW 0,0
06.07.2020 05:00:00 19,4 13,6 5 3 12 6 NW 0,0
06.07.2020 04:00:00 19,5 13,2 4 2 11 6 NW 0,0
06.07.2020 03:00:00 20,7 13,9 5 3 9 5 NW 0,0
06.07.2020 02:00:00 20,8 13,7 5 3 11 6 NW 0,0
06.07.2020 01:00:00 21,3 14,0 5 3 10 5 WNW 0,0
06.07.2020 00:00:00 22,8 18,6 2 1 9 5 N 0,0
05.07.2020 23:00:00 23,8 20,5 5 3 13 7 E 0,0
05.07.2020 22:00:00 24,1 19,8 7 4 14 8 ESE 0,0
05.07.2020 21:00:00 24,5 19,1 8 4 15 8 ESE 0,0
05.07.2020 20:00:00 25,4 19,5 8 5 18 10 SE 0,0
05.07.2020 19:00:00 26,4 18,5 9 5 20 11 SE 0,0
05.07.2020 18:00:00 26,9 18,5 9 5 20 11 SE 0,0
05.07.2020 17:00:00 27,5 17,9 9 5 22 12 SE 0,0
05.07.2020 16:00:00 27,7 19,2 11 6 27 15 SE 0,0
05.07.2020 15:00:00 27,6 20,7 13 7 27 15 SE 0,0
05.07.2020 14:00:00 27,6 21,4 16 8 32 17 SE 0,0
05.07.2020 13:00:00 28,6 20,1 14 8 31 17 SE 0,0
05.07.2020 12:00:00 29,4 18,8 13 7 27 14 ESE 0,0
05.07.2020 11:00:00 29,4 15,5 8 4 16 9 SSE 0,0
05.07.2020 10:00:00 27,4 14,1 5 3 14 8 WNW 0,0
05.07.2020 09:00:00 24,6 12,5 7 4 16 9 NW 0,0
05.07.2020 08:00:00 22,6 11,6 8 4 20 11 NNW 0,0
05.07.2020 07:00:00 20,2 12,4 6 3 21 12 N 0,0
05.07.2020 06:00:00 19,6 11,9 6 4 18 10 NNW 0,0
05.07.2020 05:00:00 20,0 13,0 5 3 17 9 N 0,0
05.07.2020 04:00:00 20,5 13,9 9 5 16 9 NW 0,0
05.07.2020 03:00:00 20,9 14,5 5 3 12 7 NNW 0,0
05.07.2020 02:00:00 21,2 15,5 4 2 10 5 NW 0,0
05.07.2020 01:00:00 22,2 15,3 3 1 9 5 N 0,0
05.07.2020 00:00:00 24,0 14,7 2 1 10 6 NNE 0,0
04.07.2020 23:00:00 25,3 14,1 3 2 12 7 N 0,0
04.07.2020 22:00:00 26,6 14,4 4 2 14 8 N 0,0
04.07.2020 21:00:00 29,9 11,4 8 4 22 12 W 0,0
04.07.2020 20:00:00 32,1 11,3 14 8 29 16 W 0,0
04.07.2020 19:00:00 29,7 15,0 14 7 31 17 SSE 0,0
04.07.2020 18:00:00 30,2 15,9 14 7 32 17 SSE 0,0
04.07.2020 17:00:00 30,6 16,6 16 9 34 18 SSE 0,0
04.07.2020 16:00:00 31,0 15,8 16 8 31 17 SSE 0,0
04.07.2020 15:00:00 31,0 15,8 17 9 39 21 S 0,0
04.07.2020 14:00:00 29,6 19,9 16 9 30 16 SSE 0,0
04.07.2020 13:00:00 28,9 17,7 14 7 26 14 SE 0,0
04.07.2020 12:00:00 30,1 16,1 8 4 24 13 S 0,0
04.07.2020 11:00:00 27,5 13,4 12 7 26 14 WNW 0,0
04.07.2020 10:00:00 25,6 12,8 13 7 29 16 WNW 0,0
04.07.2020 09:00:00 23,1 12,1 13 7 29 15 NW 0,0
04.07.2020 08:00:00 21,6 12,2 11 6 26 14 NW 0,0
04.07.2020 07:00:00 19,7 14,3 6 3 13 7 NNW 0,0
04.07.2020 06:00:00 18,9 16,3 5 3 10 6 W 0,0
04.07.2020 05:00:00 19,7 17,5 4 2 13 7 WNW 0,0
04.07.2020 04:00:00 20,0 17,2 5 3 13 7 NW 0,0
04.07.2020 03:00:00 20,4 16,2 5 3 15 8 NW 0,0
04.07.2020 02:00:00 21,7 17,1 5 3 17 9 NNW 0,0
04.07.2020 01:00:00 23,6 17,6 4 2 24 13 NE 0,0
04.07.2020 00:00:00 24,0 18,4 5 3 16 9 ENE 0,0
03.07.2020 23:00:00 24,5 19,6 6 3 18 10 ENE 0,0
03.07.2020 22:00:00 24,9 19,5 6 4 16 9 E 0,0
03.07.2020 21:00:00 25,0 20,9 8 5 18 10 SE 0,0
03.07.2020 20:00:00 25,4 21,1 9 5 23 12 SE 0,0
03.07.2020 19:00:00 26,1 20,7 8 4 23 13 SE 0,0
03.07.2020 18:00:00 27,5 19,8 10 6 24 13 SE 0,0
03.07.2020 17:00:00 27,6 19,4 13 7 27 14 ESE 0,0
03.07.2020 16:00:00 28,0 18,4 12 6 29 16 SE 0,0
03.07.2020 15:00:00 27,7 18,7 14 8 29 16 ESE 0,0
03.07.2020 14:00:00 27,9 18,0 14 8 30 16 ESE 0,0
03.07.2020 13:00:00 28,2 16,1 10 5 26 14 SE 0,0
03.07.2020 12:00:00 29,3 15,1 4 2 22 12 SW 0,0
03.07.2020 11:00:00 26,0 13,5 7 4 25 13 NW 0,0
03.07.2020 10:00:00 23,8 12,7 9 5 21 11 NW 0,0
03.07.2020 09:00:00 22,8 12,7 8 5 23 12 NW 0,0
03.07.2020 08:00:00 23,2 12,8 16 9 50 27 W 0,0
03.07.2020 07:00:00 22,5 13,0 27 15 48 26 W 0,0
03.07.2020 06:00:00 22,3 13,9 24 13 45 25 WNW 0,0
03.07.2020 05:00:00 23,1 14,4 21 11 40 22 W 0,0
03.07.2020 04:00:00 23,9 14,3 20 11 33 18 WNW 0,0
03.07.2020 03:00:00 23,5 15,0 6 4 21 12 NNW 0,0
03.07.2020 02:00:00 23,5 15,3 9 5 16 9 NW 0,0
03.07.2020 01:00:00 24,2 15,7 7 4 18 10 NW 0,0
03.07.2020 00:00:00 24,0 16,0 8 4 15 8 NW 0,0
02.07.2020 23:00:00 23,0 20,3 2 1 11 6 NW 0,0
02.07.2020 22:00:00 23,5 20,8 3 1 11 6 SSW 0,0
02.07.2020 21:00:00 25,7 21,1 0 0 15 8 N 0,0
02.07.2020 20:00:00 25,7 21,6 7 4 24 13 E 0,0
02.07.2020 19:00:00 26,4 21,8 11 6 24 13 SE 0,0
02.07.2020 18:00:00 26,1 21,7 8 4 18 10 ESE 0,0
02.07.2020 17:00:00 26,8 22,2 9 5 23 12 SE 0,0
02.07.2020 16:00:00 26,3 20,8 10 6 24 13 SE 0,0

tt = temperature
td = dewpoint
ff = wind speed
fx = gusts
dd = wind direction
rr = precipitation

Next stations